sensor_id;sensor_type;location;lat;lon;timestamp;temperature;humidity
22161;DHT22;49035;48.812;11.762;2022-08-07T00:01:20;11.30;99.90
22161;DHT22;49035;48.812;11.762;2022-08-07T00:03:46;11.30;99.90
22161;DHT22;49035;48.812;11.762;2022-08-07T00:06:12;11.30;99.90
22161;DHT22;49035;48.812;11.762;2022-08-07T00:08:37;11.30;99.90
22161;DHT22;49035;48.812;11.762;2022-08-07T00:11:04;11.40;99.90
22161;DHT22;49035;48.812;11.762;2022-08-07T00:13:30;11.30;99.90
22161;DHT22;49035;48.812;11.762;2022-08-07T00:15:56;11.30;99.90
22161;DHT22;49035;48.812;11.762;2022-08-07T00:18:24;11.20;99.90
22161;DHT22;49035;48.812;11.762;2022-08-07T00:20:54;11.20;99.90
22161;DHT22;49035;48.812;11.762;2022-08-07T00:23:20;11.20;99.90
22161;DHT22;49035;48.812;11.762;2022-08-07T00:25:46;11.10;99.90
22161;DHT22;49035;48.812;11.762;2022-08-07T00:28:11;11.10;99.90
22161;DHT22;49035;48.812;11.762;2022-08-07T00:30:37;11.10;99.90
22161;DHT22;49035;48.812;11.762;2022-08-07T00:33:03;11.10;99.90
22161;DHT22;49035;48.812;11.762;2022-08-07T00:35:28;11.00;99.90
22161;DHT22;49035;48.812;11.762;2022-08-07T00:37:54;11.00;99.90
22161;DHT22;49035;48.812;11.762;2022-08-07T00:40:20;11.00;99.90
22161;DHT22;49035;48.812;11.762;2022-08-07T00:42:46;11.00;99.90
22161;DHT22;49035;48.812;11.762;2022-08-07T00:45:12;11.10;99.90
22161;DHT22;49035;48.812;11.762;2022-08-07T00:47:37;11.10;99.90
22161;DHT22;49035;48.812;11.762;2022-08-07T00:50:04;11.10;99.90
22161;DHT22;49035;48.812;11.762;2022-08-07T00:52:30;11.00;99.90
22161;DHT22;49035;48.812;11.762;2022-08-07T00:54:56;11.10;99.90
22161;DHT22;49035;48.812;11.762;2022-08-07T00:57:23;11.10;99.90
22161;DHT22;49035;48.812;11.762;2022-08-07T00:59:49;11.00;99.90
22161;DHT22;49035;48.812;11.762;2022-08-07T01:02:15;11.00;99.90
22161;DHT22;49035;48.812;11.762;2022-08-07T01:04:41;10.90;99.90
22161;DHT22;49035;48.812;11.762;2022-08-07T01:07:06;10.90;99.90
22161;DHT22;49035;48.812;11.762;2022-08-07T01:09:32;10.80;99.90
22161;DHT22;49035;48.812;11.762;2022-08-07T01:11:59;10.80;99.90
22161;DHT22;49035;48.812;11.762;2022-08-07T01:14:25;10.70;99.90
22161;DHT22;49035;48.812;11.762;2022-08-07T01:16:52;10.70;99.90
22161;DHT22;49035;48.812;11.762;2022-08-07T01:19:18;10.70;99.90
22161;DHT22;49035;48.812;11.762;2022-08-07T01:21:47;10.60;99.90
22161;DHT22;49035;48.812;11.762;2022-08-07T01:24:14;10.50;99.90
22161;DHT22;49035;48.812;11.762;2022-08-07T01:26:40;10.60;99.90
22161;DHT22;49035;48.812;11.762;2022-08-07T01:29:06;10.50;99.90
22161;DHT22;49035;48.812;11.762;2022-08-07T01:31:31;10.50;99.90
22161;DHT22;49035;48.812;11.762;2022-08-07T01:33:58;10.40;99.90
22161;DHT22;49035;48.812;11.762;2022-08-07T01:36:25;10.40;99.90
22161;DHT22;49035;48.812;11.762;2022-08-07T01:38:53;10.50;99.90
22161;DHT22;49035;48.812;11.762;2022-08-07T01:41:19;10.50;99.90
22161;DHT22;49035;48.812;11.762;2022-08-07T01:43:46;10.50;99.90
22161;DHT22;49035;48.812;11.762;2022-08-07T01:46:12;10.50;99.90
22161;DHT22;49035;48.812;11.762;2022-08-07T01:48:43;10.50;99.90
22161;DHT22;49035;48.812;11.762;2022-08-07T01:51:13;10.40;99.90
22161;DHT22;49035;48.812;11.762;2022-08-07T01:53:43;10.40;99.90
22161;DHT22;49035;48.812;11.762;2022-08-07T01:56:13;10.50;99.90
22161;DHT22;49035;48.812;11.762;2022-08-07T01:58:43;10.40;99.90
22161;DHT22;49035;48.812;11.762;2022-08-07T02:01:17;10.40;99.90
22161;DHT22;49035;48.812;11.762;2022-08-07T02:03:48;10.40;99.90
22161;DHT22;49035;48.812;11.762;2022-08-07T02:06:16;10.40;99.90
22161;DHT22;49035;48.812;11.762;2022-08-07T02:08:44;10.40;99.90
22161;DHT22;49035;48.812;11.762;2022-08-07T02:11:12;10.30;99.90
22161;DHT22;49035;48.812;11.762;2022-08-07T02:13:38;10.30;99.90
22161;DHT22;49035;48.812;11.762;2022-08-07T02:16:07;10.40;99.90
22161;DHT22;49035;48.812;11.762;2022-08-07T02:18:35;10.50;99.90
22161;DHT22;49035;48.812;11.762;2022-08-07T02:21:03;10.60;99.90
22161;DHT22;49035;48.812;11.762;2022-08-07T02:23:33;10.60;99.90
22161;DHT22;49035;48.812;11.762;2022-08-07T02:26:00;10.80;99.90
22161;DHT22;49035;48.812;11.762;2022-08-07T02:28:28;10.80;99.90
22161;DHT22;49035;48.812;11.762;2022-08-07T02:30:54;10.80;99.90
22161;DHT22;49035;48.812;11.762;2022-08-07T02:33:23;10.80;99.90
22161;DHT22;49035;48.812;11.762;2022-08-07T02:35:50;10.90;99.90
22161;DHT22;49035;48.812;11.762;2022-08-07T02:38:17;10.80;99.90
22161;DHT22;49035;48.812;11.762;2022-08-07T02:40:44;10.80;99.90
22161;DHT22;49035;48.812;11.762;2022-08-07T02:43:11;10.80;99.90
22161;DHT22;49035;48.812;11.762;2022-08-07T02:45:39;10.70;99.90
22161;DHT22;49035;48.812;11.762;2022-08-07T02:48:07;10.70;99.90
22161;DHT22;49035;48.812;11.762;2022-08-07T02:50:35;10.50;99.90
22161;DHT22;49035;48.812;11.762;2022-08-07T02:53:09;10.50;99.90
22161;DHT22;49035;48.812;11.762;2022-08-07T02:55:38;10.40;99.90
22161;DHT22;49035;48.812;11.762;2022-08-07T02:58:10;10.40;99.90
22161;DHT22;49035;48.812;11.762;2022-08-07T03:00:39;10.40;99.90
22161;DHT22;49035;48.812;11.762;2022-08-07T03:03:07;10.40;99.90
22161;DHT22;49035;48.812;11.762;2022-08-07T03:05:34;10.50;99.90
22161;DHT22;49035;48.812;11.762;2022-08-07T03:08:05;10.50;99.90
22161;DHT22;49035;48.812;11.762;2022-08-07T03:10:32;10.60;99.90
22161;DHT22;49035;48.812;11.762;2022-08-07T03:12:58;10.50;99.90
22161;DHT22;49035;48.812;11.762;2022-08-07T03:15:24;10.40;99.90
22161;DHT22;49035;48.812;11.762;2022-08-07T03:17:51;10.40;99.90
22161;DHT22;49035;48.812;11.762;2022-08-07T03:20:16;10.40;99.90
22161;DHT22;49035;48.812;11.762;2022-08-07T03:22:43;10.30;99.90
22161;DHT22;49035;48.812;11.762;2022-08-07T03:25:10;10.30;99.90
22161;DHT22;49035;48.812;11.762;2022-08-07T03:27:36;10.20;99.90
22161;DHT22;49035;48.812;11.762;2022-08-07T03:30:03;10.10;99.90
22161;DHT22;49035;48.812;11.762;2022-08-07T03:32:48;10.00;99.90
22161;DHT22;49035;48.812;11.762;2022-08-07T03:35:16;9.90;99.90
22161;DHT22;49035;48.812;11.762;2022-08-07T03:37:43;9.70;99.90
22161;DHT22;49035;48.812;11.762;2022-08-07T03:40:10;9.70;99.90
22161;DHT22;49035;48.812;11.762;2022-08-07T03:42:36;9.70;99.90
22161;DHT22;49035;48.812;11.762;2022-08-07T03:45:03;9.70;99.90
22161;DHT22;49035;48.812;11.762;2022-08-07T03:47:30;9.70;99.90
22161;DHT22;49035;48.812;11.762;2022-08-07T03:49:57;9.60;99.90
22161;DHT22;49035;48.812;11.762;2022-08-07T03:52:28;9.50;99.90
22161;DHT22;49035;48.812;11.762;2022-08-07T03:54:59;9.40;99.90
22161;DHT22;49035;48.812;11.762;2022-08-07T03:57:26;9.40;99.90
22161;DHT22;49035;48.812;11.762;2022-08-07T03:59:54;9.30;99.90
22161;DHT22;49035;48.812;11.762;2022-08-07T04:02:21;9.20;99.90
22161;DHT22;49035;48.812;11.762;2022-08-07T04:04:47;9.20;99.90
22161;DHT22;49035;48.812;11.762;2022-08-07T04:07:15;9.20;99.90
22161;DHT22;49035;48.812;11.762;2022-08-07T04:09:42;9.20;99.90
22161;DHT22;49035;48.812;11.762;2022-08-07T04:12:08;9.20;99.90
22161;DHT22;49035;48.812;11.762;2022-08-07T04:14:34;9.20;99.90
22161;DHT22;49035;48.812;11.762;2022-08-07T04:17:00;9.20;99.90
22161;DHT22;49035;48.812;11.762;2022-08-07T04:19:26;9.30;99.90
22161;DHT22;49035;48.812;11.762;2022-08-07T04:21:52;9.30;99.90
22161;DHT22;49035;48.812;11.762;2022-08-07T04:24:18;9.30;99.90
22161;DHT22;49035;48.812;11.762;2022-08-07T04:26:44;9.40;99.90
22161;DHT22;49035;48.812;11.762;2022-08-07T04:29:10;9.40;99.90
22161;DHT22;49035;48.812;11.762;2022-08-07T04:31:39;9.50;99.90
22161;DHT22;49035;48.812;11.762;2022-08-07T04:34:06;9.50;99.90
22161;DHT22;49035;48.812;11.762;2022-08-07T04:36:32;9.70;99.90
22161;DHT22;49035;48.812;11.762;2022-08-07T04:38:59;9.90;99.90
22161;DHT22;49035;48.812;11.762;2022-08-07T04:41:25;10.00;99.90
22161;DHT22;49035;48.812;11.762;2022-08-07T04:43:51;10.10;99.90
22161;DHT22;49035;48.812;11.762;2022-08-07T04:49:19;11.20;99.90
22161;DHT22;49035;48.812;11.762;2022-08-07T04:52:18;12.10;99.90
22161;DHT22;49035;48.812;11.762;2022-08-07T04:57:47;14.00;99.90
22161;DHT22;49035;48.812;11.762;2022-08-07T05:00:17;14.60;99.90
22161;DHT22;49035;48.812;11.762;2022-08-07T05:02:57;15.40;99.90
22161;DHT22;49035;48.812;11.762;2022-08-07T05:05:36;16.10;99.90
22161;DHT22;49035;48.812;11.762;2022-08-07T05:10:58;17.20;99.90
22161;DHT22;49035;48.812;11.762;2022-08-07T05:13:29;17.50;99.90
22161;DHT22;49035;48.812;11.762;2022-08-07T05:16:03;17.80;99.90
22161;DHT22;49035;48.812;11.762;2022-08-07T05:18:33;18.40;99.90
22161;DHT22;49035;48.812;11.762;2022-08-07T05:21:02;18.60;99.90
22161;DHT22;49035;48.812;11.762;2022-08-07T05:23:37;18.90;99.90
22161;DHT22;49035;48.812;11.762;2022-08-07T05:26:04;19.40;99.90
22161;DHT22;49035;48.812;11.762;2022-08-07T05:28:36;20.00;93.10
22161;DHT22;49035;48.812;11.762;2022-08-07T05:31:02;20.40;94.70
22161;DHT22;49035;48.812;11.762;2022-08-07T05:33:30;20.40;99.90
22161;DHT22;49035;48.812;11.762;2022-08-07T05:35:58;20.80;99.90
22161;DHT22;49035;48.812;11.762;2022-08-07T05:38:25;21.20;95.80
22161;DHT22;49035;48.812;11.762;2022-08-07T05:40:52;21.80;90.10
22161;DHT22;49035;48.812;11.762;2022-08-07T05:43:18;22.10;79.20
22161;DHT22;49035;48.812;11.762;2022-08-07T05:45:46;22.30;75.80
22161;DHT22;49035;48.812;11.762;2022-08-07T05:48:13;22.60;71.00
22161;DHT22;49035;48.812;11.762;2022-08-07T05:50:40;22.30;69.30
22161;DHT22;49035;48.812;11.762;2022-08-07T05:53:05;22.10;69.60
22161;DHT22;49035;48.812;11.762;2022-08-07T05:55:33;21.90;67.70
22161;DHT22;49035;48.812;11.762;2022-08-07T05:58:01;21.70;72.30
22161;DHT22;49035;48.812;11.762;2022-08-07T06:00:28;21.70;70.60
22161;DHT22;49035;48.812;11.762;2022-08-07T06:02:55;21.70;67.50
22161;DHT22;49035;48.812;11.762;2022-08-07T06:05:23;21.90;67.60
22161;DHT22;49035;48.812;11.762;2022-08-07T06:07:54;22.10;64.50
22161;DHT22;49035;48.812;11.762;2022-08-07T06:10:20;22.10;65.80
22161;DHT22;49035;48.812;11.762;2022-08-07T06:12:46;21.40;66.10
22161;DHT22;49035;48.812;11.762;2022-08-07T06:15:14;21.30;67.40
22161;DHT22;49035;48.812;11.762;2022-08-07T06:17:40;21.20;67.20
22161;DHT22;49035;48.812;11.762;2022-08-07T06:20:07;21.20;68.20
22161;DHT22;49035;48.812;11.762;2022-08-07T06:22:34;21.20;68.50
22161;DHT22;49035;48.812;11.762;2022-08-07T06:25:02;21.60;68.10
22161;DHT22;49035;48.812;11.762;2022-08-07T06:27:28;22.00;65.70
22161;DHT22;49035;48.812;11.762;2022-08-07T06:29:53;22.30;64.70
22161;DHT22;49035;48.812;11.762;2022-08-07T06:32:19;22.50;61.10
22161;DHT22;49035;48.812;11.762;2022-08-07T06:34:45;22.50;62.20
22161;DHT22;49035;48.812;11.762;2022-08-07T06:37:11;22.60;62.20
22161;DHT22;49035;48.812;11.762;2022-08-07T06:39:36;22.60;60.90
22161;DHT22;49035;48.812;11.762;2022-08-07T06:42:09;22.70;61.10
22161;DHT22;49035;48.812;11.762;2022-08-07T06:44:36;22.80;63.40
22161;DHT22;49035;48.812;11.762;2022-08-07T06:47:03;23.20;62.40
22161;DHT22;49035;48.812;11.762;2022-08-07T06:49:29;23.50;59.30
22161;DHT22;49035;48.812;11.762;2022-08-07T06:51:55;23.50;58.40
22161;DHT22;49035;48.812;11.762;2022-08-07T06:54:24;23.40;59.20
22161;DHT22;49035;48.812;11.762;2022-08-07T06:56:51;23.10;60.70
22161;DHT22;49035;48.812;11.762;2022-08-07T06:59:26;23.20;61.50
22161;DHT22;49035;48.812;11.762;2022-08-07T07:01:52;23.60;61.40
22161;DHT22;49035;48.812;11.762;2022-08-07T07:04:19;23.40;59.30
22161;DHT22;49035;48.812;11.762;2022-08-07T07:06:44;23.30;59.90
22161;DHT22;49035;48.812;11.762;2022-08-07T07:09:26;23.60;58.10
22161;DHT22;49035;48.812;11.762;2022-08-07T07:17:09;23.30;59.20
22161;DHT22;49035;48.812;11.762;2022-08-07T07:19:45;23.30;58.40
22161;DHT22;49035;48.812;11.762;2022-08-07T07:22:11;23.20;58.00
22161;DHT22;49035;48.812;11.762;2022-08-07T07:24:38;23.30;60.40
22161;DHT22;49035;48.812;11.762;2022-08-07T07:27:06;23.70;59.00
22161;DHT22;49035;48.812;11.762;2022-08-07T07:29:37;23.60;58.00
22161;DHT22;49035;48.812;11.762;2022-08-07T07:32:07;23.50;61.80
22161;DHT22;49035;48.812;11.762;2022-08-07T07:34:35;23.60;61.60
22161;DHT22;49035;48.812;11.762;2022-08-07T07:37:03;23.60;59.10
22161;DHT22;49035;48.812;11.762;2022-08-07T07:39:31;23.60;59.60
22161;DHT22;49035;48.812;11.762;2022-08-07T07:41:59;23.60;58.00
22161;DHT22;49035;48.812;11.762;2022-08-07T07:44:27;23.10;59.00
22161;DHT22;49035;48.812;11.762;2022-08-07T07:46:54;22.90;59.30
22161;DHT22;49035;48.812;11.762;2022-08-07T07:49:22;22.80;61.60
22161;DHT22;49035;48.812;11.762;2022-08-07T07:51:49;22.90;59.90
22161;DHT22;49035;48.812;11.762;2022-08-07T07:54:17;22.80;61.40
22161;DHT22;49035;48.812;11.762;2022-08-07T07:56:43;23.30;61.40
22161;DHT22;49035;48.812;11.762;2022-08-07T07:59:11;23.60;59.60
22161;DHT22;49035;48.812;11.762;2022-08-07T08:01:42;23.60;57.60
22161;DHT22;49035;48.812;11.762;2022-08-07T08:04:10;23.20;58.20
22161;DHT22;49035;48.812;11.762;2022-08-07T08:06:41;23.20;58.50
22161;DHT22;49035;48.812;11.762;2022-08-07T08:09:07;23.10;58.30
22161;DHT22;49035;48.812;11.762;2022-08-07T08:11:33;22.80;58.20
22161;DHT22;49035;48.812;11.762;2022-08-07T08:14:00;23.00;59.70
22161;DHT22;49035;48.812;11.762;2022-08-07T08:16:46;23.30;59.20
22161;DHT22;49035;48.812;11.762;2022-08-07T08:19:17;23.50;58.90
22161;DHT22;49035;48.812;11.762;2022-08-07T08:21:48;23.60;56.60
22161;DHT22;49035;48.812;11.762;2022-08-07T08:24:43;23.70;57.00
22161;DHT22;49035;48.812;11.762;2022-08-07T08:27:33;23.80;58.50
22161;DHT22;49035;48.812;11.762;2022-08-07T08:30:11;23.80;58.00
22161;DHT22;49035;48.812;11.762;2022-08-07T08:32:43;24.10;56.90
22161;DHT22;49035;48.812;11.762;2022-08-07T08:35:16;24.40;56.60
22161;DHT22;49035;48.812;11.762;2022-08-07T08:37:45;24.10;56.20
22161;DHT22;49035;48.812;11.762;2022-08-07T08:40:21;24.00;56.40
22161;DHT22;49035;48.812;11.762;2022-08-07T08:43:13;24.30;56.60
22161;DHT22;49035;48.812;11.762;2022-08-07T08:46:06;24.40;55.30
22161;DHT22;49035;48.812;11.762;2022-08-07T08:51:26;24.50;54.90
22161;DHT22;49035;48.812;11.762;2022-08-07T08:56:28;23.80;56.00
22161;DHT22;49035;48.812;11.762;2022-08-07T08:59:25;23.70;56.30
22161;DHT22;49035;48.812;11.762;2022-08-07T09:05:25;24.00;56.40
22161;DHT22;49035;48.812;11.762;2022-08-07T09:11:12;24.80;55.80
22161;DHT22;49035;48.812;11.762;2022-08-07T09:16:21;24.80;55.50
22161;DHT22;49035;48.812;11.762;2022-08-07T09:21:35;25.40;53.00
22161;DHT22;49035;48.812;11.762;2022-08-07T09:27:02;24.10;53.80
22161;DHT22;49035;48.812;11.762;2022-08-07T09:32:20;24.00;53.60
22161;DHT22;49035;48.812;11.762;2022-08-07T09:35:17;24.30;54.70
22161;DHT22;49035;48.812;11.762;2022-08-07T09:37:53;24.70;52.00
22161;DHT22;49035;48.812;11.762;2022-08-07T09:40:31;24.40;50.60
22161;DHT22;49035;48.812;11.762;2022-08-07T09:45:39;24.50;50.10
22161;DHT22;49035;48.812;11.762;2022-08-07T09:53:44;24.30;53.60
22161;DHT22;49035;48.812;11.762;2022-08-07T09:56:43;24.50;51.60
22161;DHT22;49035;48.812;11.762;2022-08-07T10:02:32;24.90;51.90
22161;DHT22;49035;48.812;11.762;2022-08-07T10:10:47;24.60;51.30
22161;DHT22;49035;48.812;11.762;2022-08-07T10:13:46;24.90;51.60
22161;DHT22;49035;48.812;11.762;2022-08-07T10:22:02;25.70;50.70
22161;DHT22;49035;48.812;11.762;2022-08-07T10:27:31;25.70;50.00
22161;DHT22;49035;48.812;11.762;2022-08-07T10:30:05;25.80;46.20
22161;DHT22;49035;48.812;11.762;2022-08-07T10:35:49;27.00;48.40
22161;DHT22;49035;48.812;11.762;2022-08-07T10:41:43;27.20;46.40
22161;DHT22;49035;48.812;11.762;2022-08-07T10:44:16;27.00;46.80
22161;DHT22;49035;48.812;11.762;2022-08-07T10:47:39;26.90;46.70
22161;DHT22;49035;48.812;11.762;2022-08-07T10:49:44;26.70;46.40
22161;DHT22;49035;48.812;11.762;2022-08-07T10:52:32;26.90;47.50
22161;DHT22;49035;48.812;11.762;2022-08-07T10:55:16;26.40;47.60
22161;DHT22;49035;48.812;11.762;2022-08-07T10:57:50;26.80;47.90
22161;DHT22;49035;48.812;11.762;2022-08-07T11:00:23;27.20;46.30
22161;DHT22;49035;48.812;11.762;2022-08-07T11:05:44;26.80;46.00
22161;DHT22;49035;48.812;11.762;2022-08-07T11:08:39;26.20;47.50
22161;DHT22;49035;48.812;11.762;2022-08-07T11:11:15;26.20;47.50
22161;DHT22;49035;48.812;11.762;2022-08-07T11:13:57;26.70;47.20
22161;DHT22;49035;48.812;11.762;2022-08-07T11:16:28;27.20;44.50
22161;DHT22;49035;48.812;11.762;2022-08-07T11:19:54;27.50;47.30
22161;DHT22;49035;48.812;11.762;2022-08-07T11:22:16;27.50;43.70
22161;DHT22;49035;48.812;11.762;2022-08-07T11:27:38;27.50;44.60
22161;DHT22;49035;48.812;11.762;2022-08-07T11:30:06;27.80;46.00
22161;DHT22;49035;48.812;11.762;2022-08-07T11:35:31;27.50;44.70
22161;DHT22;49035;48.812;11.762;2022-08-07T11:38:16;28.10;45.00
22161;DHT22;49035;48.812;11.762;2022-08-07T11:40:57;28.20;45.40
22161;DHT22;49035;48.812;11.762;2022-08-07T11:43:34;28.80;42.20
22161;DHT22;49035;48.812;11.762;2022-08-07T11:46:33;29.20;44.70
22161;DHT22;49035;48.812;11.762;2022-08-07T11:49:15;28.40;44.30
22161;DHT22;49035;48.812;11.762;2022-08-07T11:52:01;28.50;41.10
22161;DHT22;49035;48.812;11.762;2022-08-07T11:57:28;27.00;43.80
22161;DHT22;49035;48.812;11.762;2022-08-07T12:03:04;28.20;44.40
22161;DHT22;49035;48.812;11.762;2022-08-07T12:10:53;29.00;41.40
22161;DHT22;49035;48.812;11.762;2022-08-07T12:13:52;28.50;41.50
22161;DHT22;49035;48.812;11.762;2022-08-07T12:16:26;27.90;43.50
22161;DHT22;49035;48.812;11.762;2022-08-07T12:21:41;28.10;41.30
22161;DHT22;49035;48.812;11.762;2022-08-07T12:26:53;28.30;39.40
22161;DHT22;49035;48.812;11.762;2022-08-07T12:34:52;28.60;42.30
22161;DHT22;49035;48.812;11.762;2022-08-07T12:37:18;27.80;39.20
22161;DHT22;49035;48.812;11.762;2022-08-07T12:39:48;27.50;41.70
22161;DHT22;49035;48.812;11.762;2022-08-07T12:42:16;27.90;44.50
22161;DHT22;49035;48.812;11.762;2022-08-07T12:44:46;28.30;40.50
22161;DHT22;49035;48.812;11.762;2022-08-07T12:50:30;27.80;41.70
22161;DHT22;49035;48.812;11.762;2022-08-07T12:52:59;28.10;41.70
22161;DHT22;49035;48.812;11.762;2022-08-07T12:55:42;27.80;42.10
22161;DHT22;49035;48.812;11.762;2022-08-07T12:58:14;27.60;42.30
22161;DHT22;49035;48.812;11.762;2022-08-07T13:12:11;27.80;42.50
22161;DHT22;49035;48.812;11.762;2022-08-07T13:14:45;27.50;43.30
22161;DHT22;49035;48.812;11.762;2022-08-07T13:17:32;27.70;41.20
22161;DHT22;49035;48.812;11.762;2022-08-07T13:20:07;27.70;45.20
22161;DHT22;49035;48.812;11.762;2022-08-07T13:23:05;27.90;41.30
22161;DHT22;49035;48.812;11.762;2022-08-07T13:25:43;28.20;44.20
22161;DHT22;49035;48.812;11.762;2022-08-07T13:28:15;28.60;42.10
22161;DHT22;49035;48.812;11.762;2022-08-07T13:30:48;28.10;40.50
22161;DHT22;49035;48.812;11.762;2022-08-07T13:33:33;28.00;43.90
22161;DHT22;49035;48.812;11.762;2022-08-07T13:36:22;27.70;42.10
22161;DHT22;49035;48.812;11.762;2022-08-07T13:38:55;27.90;43.20
22161;DHT22;49035;48.812;11.762;2022-08-07T13:41:29;28.00;43.00
22161;DHT22;49035;48.812;11.762;2022-08-07T13:44:02;28.50;40.10
22161;DHT22;49035;48.812;11.762;2022-08-07T13:46:31;28.20;40.80
22161;DHT22;49035;48.812;11.762;2022-08-07T13:49:00;27.90;43.30
22161;DHT22;49035;48.812;11.762;2022-08-07T13:51:28;28.10;42.80
22161;DHT22;49035;48.812;11.762;2022-08-07T13:53:57;28.10;42.80
22161;DHT22;49035;48.812;11.762;2022-08-07T13:56:25;28.30;41.00
22161;DHT22;49035;48.812;11.762;2022-08-07T13:58:52;27.80;40.70
22161;DHT22;49035;48.812;11.762;2022-08-07T14:01:29;27.50;43.00
22161;DHT22;49035;48.812;11.762;2022-08-07T14:03:56;27.50;41.20
22161;DHT22;49035;48.812;11.762;2022-08-07T14:06:30;27.90;40.00
22161;DHT22;49035;48.812;11.762;2022-08-07T14:08:57;27.90;39.00
22161;DHT22;49035;48.812;11.762;2022-08-07T14:11:26;28.00;41.00
22161;DHT22;49035;48.812;11.762;2022-08-07T14:13:56;28.10;43.40
22161;DHT22;49035;48.812;11.762;2022-08-07T14:16:32;28.50;40.10
22161;DHT22;49035;48.812;11.762;2022-08-07T14:19:00;28.80;41.30
22161;DHT22;49035;48.812;11.762;2022-08-07T14:21:40;28.90;39.20
22161;DHT22;49035;48.812;11.762;2022-08-07T14:24:13;29.00;40.70
22161;DHT22;49035;48.812;11.762;2022-08-07T14:26:57;28.90;40.90
22161;DHT22;49035;48.812;11.762;2022-08-07T14:29:26;29.00;40.40
22161;DHT22;49035;48.812;11.762;2022-08-07T14:31:59;28.70;38.80
22161;DHT22;49035;48.812;11.762;2022-08-07T14:34:28;28.90;40.80
22161;DHT22;49035;48.812;11.762;2022-08-07T14:36:55;29.40;39.40
22161;DHT22;49035;48.812;11.762;2022-08-07T14:39:21;29.70;40.20
22161;DHT22;49035;48.812;11.762;2022-08-07T14:41:49;29.30;41.80
22161;DHT22;49035;48.812;11.762;2022-08-07T14:44:16;29.80;41.00
22161;DHT22;49035;48.812;11.762;2022-08-07T14:46:44;29.80;39.70
22161;DHT22;49035;48.812;11.762;2022-08-07T14:49:11;29.80;36.90
22161;DHT22;49035;48.812;11.762;2022-08-07T14:51:37;29.60;39.70
22161;DHT22;49035;48.812;11.762;2022-08-07T14:54:06;29.70;38.50
22161;DHT22;49035;48.812;11.762;2022-08-07T14:56:39;29.60;38.80
22161;DHT22;49035;48.812;11.762;2022-08-07T14:59:07;30.10;40.80
22161;DHT22;49035;48.812;11.762;2022-08-07T15:01:35;30.40;37.40
22161;DHT22;49035;48.812;11.762;2022-08-07T15:04:04;30.40;39.30
22161;DHT22;49035;48.812;11.762;2022-08-07T15:06:36;30.60;38.40
22161;DHT22;49035;48.812;11.762;2022-08-07T15:09:13;30.20;37.50
22161;DHT22;49035;48.812;11.762;2022-08-07T15:11:43;29.50;39.00
22161;DHT22;49035;48.812;11.762;2022-08-07T15:14:16;29.30;39.00
22161;DHT22;49035;48.812;11.762;2022-08-07T15:17:10;29.20;38.10
22161;DHT22;49035;48.812;11.762;2022-08-07T15:19:56;29.10;40.00
22161;DHT22;49035;48.812;11.762;2022-08-07T15:22:28;29.40;39.50
22161;DHT22;49035;48.812;11.762;2022-08-07T15:24:56;29.60;37.80
22161;DHT22;49035;48.812;11.762;2022-08-07T15:27:24;29.50;40.50
22161;DHT22;49035;48.812;11.762;2022-08-07T15:29:53;29.30;39.70
22161;DHT22;49035;48.812;11.762;2022-08-07T15:32:20;29.40;40.50
22161;DHT22;49035;48.812;11.762;2022-08-07T15:34:53;29.10;40.50
22161;DHT22;49035;48.812;11.762;2022-08-07T15:37:22;29.30;41.70
22161;DHT22;49035;48.812;11.762;2022-08-07T15:39:58;29.20;41.60
22161;DHT22;49035;48.812;11.762;2022-08-07T15:45:08;29.20;40.50
22161;DHT22;49035;48.812;11.762;2022-08-07T15:47:38;28.90;41.00
22161;DHT22;49035;48.812;11.762;2022-08-07T15:50:05;29.20;42.30
22161;DHT22;49035;48.812;11.762;2022-08-07T15:52:34;29.50;38.80
22161;DHT22;49035;48.812;11.762;2022-08-07T15:55:03;29.60;39.30
22161;DHT22;49035;48.812;11.762;2022-08-07T15:57:32;29.80;39.80
22161;DHT22;49035;48.812;11.762;2022-08-07T16:00:00;29.70;41.50
22161;DHT22;49035;48.812;11.762;2022-08-07T16:02:29;29.50;38.50
22161;DHT22;49035;48.812;11.762;2022-08-07T16:04:58;29.70;40.00
22161;DHT22;49035;48.812;11.762;2022-08-07T16:07:30;30.00;38.40
22161;DHT22;49035;48.812;11.762;2022-08-07T16:10:07;30.30;38.10
22161;DHT22;49035;48.812;11.762;2022-08-07T16:15:36;30.10;40.50
22161;DHT22;49035;48.812;11.762;2022-08-07T16:21:33;29.70;39.70
22161;DHT22;49035;48.812;11.762;2022-08-07T16:32:18;28.20;43.30
22161;DHT22;49035;48.812;11.762;2022-08-07T16:35:21;28.10;43.70
22161;DHT22;49035;48.812;11.762;2022-08-07T16:38:08;28.10;43.90
22161;DHT22;49035;48.812;11.762;2022-08-07T16:43:55;27.80;45.00
22161;DHT22;49035;48.812;11.762;2022-08-07T16:46:41;27.60;44.80
22161;DHT22;49035;48.812;11.762;2022-08-07T16:49:23;27.50;46.50
22161;DHT22;49035;48.812;11.762;2022-08-07T16:51:57;27.40;45.90
22161;DHT22;49035;48.812;11.762;2022-08-07T17:00:14;26.60;47.10
22161;DHT22;49035;48.812;11.762;2022-08-07T17:05:31;26.40;47.90
22161;DHT22;49035;48.812;11.762;2022-08-07T17:07:59;26.30;48.20
22161;DHT22;49035;48.812;11.762;2022-08-07T17:10:45;26.00;48.70
22161;DHT22;49035;48.812;11.762;2022-08-07T17:18:27;25.60;49.70
22161;DHT22;49035;48.812;11.762;2022-08-07T17:20:54;25.50;50.20
22161;DHT22;49035;48.812;11.762;2022-08-07T17:31:46;24.90;53.10
22161;DHT22;49035;48.812;11.762;2022-08-07T17:34:31;24.70;53.60
22161;DHT22;49035;48.812;11.762;2022-08-07T17:37:03;24.60;54.10
22161;DHT22;49035;48.812;11.762;2022-08-07T17:39:44;24.50;54.40
22161;DHT22;49035;48.812;11.762;2022-08-07T17:42:20;24.50;54.20
22161;DHT22;49035;48.812;11.762;2022-08-07T17:44:50;24.30;55.60
22161;DHT22;49035;48.812;11.762;2022-08-07T17:49:53;24.10;55.90
22161;DHT22;49035;48.812;11.762;2022-08-07T17:52:26;23.90;56.10
22161;DHT22;49035;48.812;11.762;2022-08-07T18:00:08;23.50;66.60
22161;DHT22;49035;48.812;11.762;2022-08-07T18:02:41;23.30;61.00
22161;DHT22;49035;48.812;11.762;2022-08-07T18:08:12;22.80;66.90
22161;DHT22;49035;48.812;11.762;2022-08-07T18:10:48;22.60;64.90
22161;DHT22;49035;48.812;11.762;2022-08-07T18:16:15;22.30;69.20
22161;DHT22;49035;48.812;11.762;2022-08-07T18:18:48;22.40;67.90
22161;DHT22;49035;48.812;11.762;2022-08-07T18:32:15;20.30;80.00
22161;DHT22;49035;48.812;11.762;2022-08-07T18:43:08;19.00;91.30
22161;DHT22;49035;48.812;11.762;2022-08-07T18:45:53;18.70;93.40
22161;DHT22;49035;48.812;11.762;2022-08-07T18:48:34;18.50;95.40
22161;DHT22;49035;48.812;11.762;2022-08-07T18:54:01;18.10;99.90
22161;DHT22;49035;48.812;11.762;2022-08-07T18:56:46;18.00;99.90